createdAt,value
2023-05-18T00:02:28.350Z,2.50
2023-05-18T00:04:57.236Z,2.30
2023-05-18T00:07:26.260Z,3.00
2023-05-18T00:09:55.203Z,2.60
2023-05-18T00:12:23.947Z,2.30
2023-05-18T00:14:52.629Z,2.10
2023-05-18T00:17:22.184Z,2.80
2023-05-18T00:19:51.025Z,2.20
2023-05-18T00:22:20.427Z,3.00
2023-05-18T00:24:49.332Z,2.40
2023-05-18T00:27:18.015Z,2.60
2023-05-18T00:29:46.797Z,2.20
2023-05-18T00:32:15.854Z,2.70
2023-05-18T00:34:44.383Z,2.60
2023-05-18T00:37:13.171Z,2.50
2023-05-18T00:39:42.163Z,2.40
2023-05-18T00:42:10.951Z,2.30
2023-05-18T00:44:39.554Z,2.10
2023-05-18T00:47:09.735Z,2.50
2023-05-18T00:49:38.552Z,2.40
2023-05-18T00:52:08.119Z,2.40
2023-05-18T00:54:36.745Z,2.70
2023-05-18T00:57:07.160Z,2.50
2023-05-18T00:59:36.165Z,2.80
2023-05-18T01:02:06.296Z,2.70
2023-05-18T01:04:34.974Z,2.70
2023-05-18T01:07:07.111Z,2.30
2023-05-18T01:09:36.145Z,2.00
2023-05-18T01:12:22.191Z,2.50
2023-05-18T01:15:03.929Z,2.80
2023-05-18T01:18:07.250Z,2.60
2023-05-18T01:20:49.718Z,2.60
2023-05-18T01:23:57.844Z,2.40
2023-05-18T01:26:31.810Z,2.50
2023-05-18T01:29:06.967Z,2.30
2023-05-18T01:31:36.340Z,2.80
2023-05-18T01:34:05.079Z,2.40
2023-05-18T01:36:33.875Z,2.50
2023-05-18T01:39:04.097Z,2.10
2023-05-18T01:41:37.495Z,2.10
2023-05-18T01:44:24.917Z,2.20
2023-05-18T01:47:02.944Z,2.40
2023-05-18T01:49:56.906Z,2.30
2023-05-18T01:52:34.716Z,2.50
2023-05-18T01:55:05.985Z,2.20
2023-05-18T01:57:37.616Z,2.20
2023-05-18T02:00:10.062Z,2.30
2023-05-18T02:02:45.837Z,2.40
2023-05-18T02:05:15.964Z,2.20
2023-05-18T02:07:47.789Z,2.00
2023-05-18T02:10:17.033Z,1.90
2023-05-18T02:12:49.499Z,2.30
2023-05-18T02:15:18.969Z,1.90
2023-05-18T02:17:47.926Z,2.20
2023-05-18T02:20:19.335Z,1.70
2023-05-18T02:22:48.025Z,2.00
2023-05-18T02:25:17.545Z,1.60
2023-05-18T02:27:46.113Z,1.60
2023-05-18T02:30:16.981Z,1.60
2023-05-18T02:32:47.512Z,1.90
2023-05-18T02:35:18.510Z,1.30
2023-05-18T02:37:47.719Z,2.10
2023-05-18T02:40:17.181Z,1.80
2023-05-18T02:42:45.816Z,1.60
2023-05-18T02:45:14.706Z,1.60
2023-05-18T02:47:44.541Z,1.60
2023-05-18T02:50:13.714Z,1.50
2023-05-18T02:52:42.609Z,1.70
2023-05-18T02:55:14.062Z,1.90
2023-05-18T02:58:16.401Z,2.30
2023-05-18T03:01:15.173Z,2.30
2023-05-18T03:03:49.081Z,2.50
2023-05-18T03:06:17.929Z,2.80
2023-05-18T03:08:49.503Z,2.60
2023-05-18T03:11:18.284Z,3.00
2023-05-18T03:13:47.679Z,3.20
2023-05-18T03:16:16.912Z,3.30
2023-05-18T03:18:46.510Z,3.10
2023-05-18T03:21:15.582Z,3.00
2023-05-18T03:23:44.371Z,2.80
2023-05-18T03:26:13.420Z,3.50
2023-05-18T03:28:42.676Z,2.50
2023-05-18T03:31:11.351Z,2.50
2023-05-18T03:33:40.038Z,3.60
2023-05-18T03:36:09.549Z,4.40
2023-05-18T03:38:38.333Z,4.00
2023-05-18T03:41:10.299Z,5.70
2023-05-18T03:43:38.991Z,8.30
2023-05-18T03:46:08.722Z,11.40
2023-05-18T03:48:37.895Z,11.00
2023-05-18T03:51:06.867Z,11.80
2023-05-18T03:53:36.705Z,12.70
2023-05-18T03:56:05.696Z,12.80
2023-05-18T03:58:34.896Z,11.50
2023-05-18T04:01:04.811Z,13.90
2023-05-18T04:03:35.000Z,14.80
2023-05-18T04:06:04.023Z,26.30
2023-05-18T04:08:34.767Z,53.70
2023-05-18T04:11:03.553Z,58.80
2023-05-18T04:13:32.342Z,35.00
2023-05-18T04:16:01.225Z,40.60
2023-05-18T04:18:30.548Z,25.70
2023-05-18T04:21:00.658Z,23.90
2023-05-18T04:23:29.345Z,29.60
2023-05-18T04:25:58.148Z,25.30
2023-05-18T04:28:28.970Z,21.70
2023-05-18T04:30:58.270Z,18.50
2023-05-18T04:33:27.164Z,17.80
2023-05-18T04:35:56.076Z,10.20
2023-05-18T04:38:26.178Z,6.60
2023-05-18T04:40:57.427Z,7.40
2023-05-18T04:43:26.781Z,6.10
2023-05-18T04:45:56.085Z,7.30
2023-05-18T04:48:26.467Z,7.10
2023-05-18T04:50:56.473Z,6.50
2023-05-18T04:53:27.826Z,5.50
2023-05-18T04:55:57.120Z,5.80
2023-05-18T04:58:25.817Z,5.10
2023-05-18T05:00:54.889Z,4.80
2023-05-18T05:03:24.158Z,3.80
2023-05-18T05:05:52.987Z,4.40
2023-05-18T05:08:22.095Z,3.70
2023-05-18T05:10:50.979Z,3.70
2023-05-18T05:13:19.661Z,3.00
2023-05-18T05:15:49.305Z,2.60
2023-05-18T05:18:18.749Z,2.50
2023-05-18T05:20:47.462Z,2.80
2023-05-18T05:23:17.618Z,3.00
2023-05-18T05:25:47.418Z,2.60
2023-05-18T05:28:16.188Z,2.20
2023-05-18T05:30:45.385Z,1.90
2023-05-18T05:33:14.241Z,1.90
2023-05-18T05:35:43.062Z,1.70
2023-05-18T05:38:11.957Z,1.70
2023-05-18T05:40:40.747Z,1.70
2023-05-18T05:43:10.666Z,1.90
2023-05-18T05:45:40.075Z,1.50
2023-05-18T05:48:13.550Z,1.50
2023-05-18T05:50:42.891Z,1.60
2023-05-18T05:53:11.862Z,1.80
2023-05-18T05:55:42.288Z,1.90
2023-05-18T05:58:17.025Z,1.90
2023-05-18T06:00:53.385Z,1.50
2023-05-18T06:03:22.294Z,1.80
2023-05-18T06:05:51.604Z,1.80
2023-05-18T06:08:24.589Z,1.30
2023-05-18T06:10:55.569Z,1.90
2023-05-18T06:13:25.420Z,1.40
2023-05-18T06:15:56.571Z,2.20
2023-05-18T06:18:26.173Z,1.50
2023-05-18T06:20:58.772Z,1.70
2023-05-18T06:23:27.950Z,2.40
2023-05-18T06:25:59.815Z,1.70
2023-05-18T06:28:51.338Z,2.00
2023-05-18T06:31:30.050Z,1.70
2023-05-18T06:34:10.218Z,1.80
2023-05-18T06:36:39.237Z,2.20
2023-05-18T06:39:07.816Z,2.30
2023-05-18T06:41:36.387Z,2.30
2023-05-18T06:44:05.244Z,2.20
2023-05-18T06:46:39.038Z,2.20
2023-05-18T06:49:19.442Z,2.20
2023-05-18T06:51:47.955Z,2.50
2023-05-18T06:54:16.993Z,2.10
2023-05-18T06:56:46.567Z,1.90
2023-05-18T06:59:15.993Z,1.80
2023-05-18T07:01:45.281Z,1.70
2023-05-18T07:04:16.553Z,1.80
2023-05-18T07:06:46.700Z,1.80
2023-05-18T07:09:15.384Z,1.90
2023-05-18T07:11:45.916Z,1.30
2023-05-18T07:14:14.824Z,1.60
2023-05-18T07:16:44.614Z,1.30
2023-05-18T07:19:14.789Z,1.30
2023-05-18T07:21:43.635Z,1.00
2023-05-18T07:24:12.531Z,1.10
2023-05-18T07:26:41.311Z,1.50
2023-05-18T07:29:10.009Z,1.30
2023-05-18T07:31:41.443Z,1.40
2023-05-18T07:34:10.340Z,1.50
2023-05-18T07:36:39.034Z,1.00
2023-05-18T07:39:08.538Z,0.90
2023-05-18T07:41:37.529Z,0.90
2023-05-18T07:44:06.113Z,1.60
2023-05-18T07:46:34.917Z,1.20
2023-05-18T07:49:03.798Z,1.20
2023-05-18T07:51:32.806Z,1.30
2023-05-18T07:54:01.371Z,1.60
2023-05-18T07:56:30.789Z,1.40
2023-05-18T07:58:59.360Z,1.10
2023-05-18T08:01:30.516Z,1.30
2023-05-18T08:03:59.365Z,0.70
2023-05-18T08:06:28.290Z,0.90
2023-05-18T08:08:57.075Z,0.90
2023-05-18T08:11:26.582Z,1.20
2023-05-18T08:13:55.167Z,1.00
2023-05-18T08:16:23.994Z,1.70
2023-05-18T08:18:53.086Z,1.00
2023-05-18T08:21:22.045Z,1.20
2023-05-18T08:23:51.049Z,0.80
2023-05-18T08:26:19.604Z,1.20
2023-05-18T08:28:49.338Z,0.90
2023-05-18T08:31:18.094Z,1.00
2023-05-18T08:33:48.150Z,0.90
2023-05-18T08:36:17.568Z,0.80
2023-05-18T08:38:46.333Z,1.10
2023-05-18T08:41:30.075Z,0.70
2023-05-18T08:44:26.313Z,0.90
2023-05-18T08:46:56.632Z,1.00
2023-05-18T08:49:27.879Z,1.00
2023-05-18T08:52:00.779Z,1.50
2023-05-18T08:54:32.390Z,0.80
2023-05-18T08:57:03.027Z,1.00
2023-05-18T08:59:36.908Z,0.70
2023-05-18T09:02:05.733Z,1.50
2023-05-18T09:04:35.571Z,0.80
2023-05-18T09:07:07.000Z,1.30
2023-05-18T09:09:36.257Z,1.30
2023-05-18T09:12:06.870Z,1.20
2023-05-18T09:14:35.535Z,1.30
2023-05-18T09:17:04.439Z,1.10
2023-05-18T09:19:33.421Z,0.90
2023-05-18T09:22:02.322Z,1.00
2023-05-18T09:24:31.413Z,1.10
2023-05-18T09:27:00.136Z,1.00
2023-05-18T09:29:29.458Z,1.20
2023-05-18T09:32:04.214Z,0.80
2023-05-18T09:34:43.164Z,0.90
2023-05-18T09:37:12.257Z,1.20
2023-05-18T09:39:42.471Z,1.10
2023-05-18T09:42:11.259Z,1.10
2023-05-18T09:44:39.845Z,0.80
2023-05-18T09:47:10.939Z,1.10
2023-05-18T09:49:41.110Z,1.00
2023-05-18T09:52:10.002Z,1.10
2023-05-18T09:54:38.595Z,0.90
2023-05-18T09:57:10.806Z,1.10
2023-05-18T09:59:40.062Z,0.90
2023-05-18T10:02:13.371Z,1.00
2023-05-18T10:04:44.089Z,0.70
2023-05-18T10:07:18.303Z,1.40
2023-05-18T10:09:47.606Z,1.50
2023-05-18T10:12:20.045Z,1.00
2023-05-18T10:14:49.804Z,1.20
2023-05-18T10:17:18.684Z,1.00
2023-05-18T10:19:50.653Z,1.20
2023-05-18T10:22:23.542Z,0.90
2023-05-18T10:24:53.176Z,1.20
2023-05-18T10:27:28.656Z,1.10
2023-05-18T10:29:59.261Z,0.90
2023-05-18T10:32:30.549Z,1.00
2023-05-18T10:35:00.874Z,1.00
2023-05-18T10:37:32.014Z,0.80
2023-05-18T10:40:03.500Z,1.40
2023-05-18T10:42:32.800Z,1.30
2023-05-18T10:45:03.997Z,1.30
2023-05-18T10:47:36.476Z,0.90
2023-05-18T10:50:06.862Z,1.00
2023-05-18T10:52:37.611Z,1.10
2023-05-18T10:55:08.783Z,1.70
2023-05-18T10:57:52.156Z,0.90
2023-05-18T11:00:21.171Z,1.70
2023-05-18T11:02:51.305Z,1.30
2023-05-18T11:05:27.433Z,1.10
2023-05-18T11:08:06.778Z,1.30
2023-05-18T11:10:48.564Z,1.00
2023-05-18T11:13:18.376Z,1.30
2023-05-18T11:15:56.892Z,1.00
2023-05-18T11:18:49.972Z,1.10
2023-05-18T11:21:24.782Z,1.00
2023-05-18T11:24:32.637Z,0.90
2023-05-18T11:27:14.229Z,1.00
2023-05-18T11:29:57.724Z,1.50
2023-05-18T11:32:34.335Z,1.40
2023-05-18T11:35:06.146Z,1.30
2023-05-18T11:37:40.561Z,1.30
2023-05-18T11:40:33.312Z,1.30
2023-05-18T11:43:02.918Z,1.30
2023-05-18T11:45:34.372Z,1.20
2023-05-18T11:48:03.833Z,0.70
2023-05-18T11:50:32.887Z,1.20
2023-05-18T11:53:01.765Z,0.90
2023-05-18T11:55:41.527Z,1.20
2023-05-18T11:58:11.018Z,1.00
2023-05-18T12:00:40.316Z,1.00
2023-05-18T12:03:09.288Z,0.80
2023-05-18T12:05:38.831Z,1.40
2023-05-18T12:08:09.785Z,1.10
2023-05-18T12:10:39.940Z,1.40
2023-05-18T12:13:09.383Z,2.20
2023-05-18T12:15:39.186Z,1.50
2023-05-18T12:18:07.805Z,1.20
2023-05-18T12:20:40.559Z,1.50
2023-05-18T12:23:09.763Z,1.30
2023-05-18T12:25:38.959Z,1.00
2023-05-18T12:28:08.889Z,1.00
2023-05-18T12:30:38.798Z,1.00
2023-05-18T12:33:08.223Z,0.90
2023-05-18T12:35:37.055Z,1.10
2023-05-18T12:38:05.873Z,1.10
2023-05-18T12:40:46.850Z,0.90
2023-05-18T12:43:15.934Z,0.80
2023-05-18T12:45:45.490Z,0.70
2023-05-18T12:48:15.398Z,0.90
2023-05-18T12:50:51.701Z,0.80
2023-05-18T12:53:20.423Z,0.90
2023-05-18T12:56:00.037Z,1.10
2023-05-18T12:58:28.654Z,1.00
2023-05-18T13:00:57.542Z,1.00
2023-05-18T13:03:26.320Z,7.50
2023-05-18T13:06:07.324Z,2.50
2023-05-18T13:08:37.389Z,1.20
2023-05-18T13:13:57.543Z,1.10
2023-05-18T13:16:27.299Z,1.40
2023-05-18T13:19:01.532Z,1.30
2023-05-18T13:21:31.395Z,0.70
2023-05-18T13:24:01.313Z,0.70
2023-05-18T13:26:30.084Z,0.80
2023-05-18T13:29:00.487Z,0.90
2023-05-18T13:31:31.886Z,0.90
2023-05-18T13:34:00.749Z,0.70
2023-05-18T13:36:30.172Z,0.70
2023-05-18T13:38:58.841Z,0.80
2023-05-18T13:41:28.051Z,1.00
2023-05-18T13:43:56.830Z,0.90
2023-05-18T13:46:25.951Z,0.80
2023-05-18T13:48:54.720Z,0.60
2023-05-18T13:51:23.409Z,0.70
2023-05-18T13:53:52.094Z,0.90
2023-05-18T13:56:21.446Z,0.80
2023-05-18T13:58:50.594Z,0.80
2023-05-18T14:01:19.525Z,3.50
2023-05-18T14:03:48.344Z,3.90
2023-05-18T14:06:17.205Z,0.70
2023-05-18T14:08:45.954Z,0.60
2023-05-18T14:11:14.769Z,0.80
2023-05-18T14:13:43.531Z,0.90
2023-05-18T14:16:12.226Z,0.80
2023-05-18T14:18:41.148Z,0.90
2023-05-18T14:21:10.001Z,0.70
2023-05-18T14:23:38.686Z,1.10
2023-05-18T14:26:07.371Z,0.70
2023-05-18T14:28:36.269Z,1.10
2023-05-18T14:31:05.061Z,0.90
2023-05-18T14:33:33.749Z,0.60
2023-05-18T14:36:02.535Z,0.50
2023-05-18T14:38:31.214Z,0.50
2023-05-18T14:40:59.901Z,0.60
2023-05-18T14:43:28.590Z,0.70
2023-05-18T14:46:08.124Z,0.90
2023-05-18T14:48:37.848Z,0.60
2023-05-18T14:51:06.631Z,0.70
2023-05-18T14:53:35.733Z,0.90
2023-05-18T14:56:08.836Z,1.50
2023-05-18T14:58:37.618Z,0.80
2023-05-18T15:01:06.356Z,0.60
2023-05-18T15:03:35.170Z,0.50
2023-05-18T15:06:04.071Z,0.80
2023-05-18T15:08:32.870Z,0.70
2023-05-18T15:11:01.627Z,0.70
2023-05-18T15:13:30.138Z,0.60
2023-05-18T15:15:59.203Z,0.70
2023-05-18T15:18:27.946Z,1.20
2023-05-18T15:20:56.866Z,0.60
2023-05-18T15:23:26.827Z,0.60
2023-05-18T15:25:55.632Z,0.70
2023-05-18T15:28:24.429Z,0.80
2023-05-18T15:30:54.870Z,0.70
2023-05-18T15:33:23.727Z,0.70
2023-05-18T15:35:52.361Z,0.70
2023-05-18T15:38:21.124Z,0.50
2023-05-18T15:40:50.614Z,0.70
2023-05-18T15:43:20.585Z,0.80
2023-05-18T15:45:49.329Z,0.70
2023-05-18T15:48:18.205Z,0.70
2023-05-18T15:50:47.198Z,1.00
2023-05-18T15:53:16.189Z,0.60
2023-05-18T15:55:44.882Z,0.70
2023-05-18T15:58:13.884Z,0.60
2023-05-18T16:00:43.085Z,0.60
2023-05-18T16:03:12.943Z,1.30
2023-05-18T16:05:41.698Z,1.20
2023-05-18T16:08:10.588Z,1.20
2023-05-18T16:10:39.481Z,1.60
2023-05-18T16:13:08.363Z,0.60
2023-05-18T16:15:37.661Z,1.70
2023-05-18T16:18:06.785Z,1.10
2023-05-18T16:20:35.750Z,1.20
2023-05-18T16:23:04.842Z,2.00
2023-05-18T16:25:33.544Z,1.00
2023-05-18T16:28:02.593Z,0.50
2023-05-18T16:30:31.775Z,0.70
2023-05-18T16:33:00.743Z,1.40
2023-05-18T16:35:32.171Z,1.40
2023-05-18T16:38:00.853Z,1.10
2023-05-18T16:40:29.779Z,1.20
2023-05-18T16:42:58.857Z,0.90
2023-05-18T16:45:28.450Z,0.80
2023-05-18T16:47:57.168Z,0.80
2023-05-18T16:50:28.104Z,0.90
2023-05-18T16:52:57.397Z,1.00
2023-05-18T16:55:27.050Z,1.00
2023-05-18T16:57:56.712Z,2.00
2023-05-18T17:00:25.905Z,3.70
2023-05-18T17:02:54.682Z,1.00
2023-05-18T17:05:23.675Z,0.80
2023-05-18T17:07:53.477Z,1.30
2023-05-18T17:10:22.403Z,0.80
2023-05-18T17:12:52.111Z,1.00
2023-05-18T17:15:21.339Z,3.10
2023-05-18T17:17:50.118Z,3.30
2023-05-18T17:20:19.078Z,3.40
2023-05-18T17:22:48.086Z,1.90
2023-05-18T17:25:16.962Z,2.20
2023-05-18T17:27:45.849Z,2.70
2023-05-18T17:30:14.962Z,2.50
2023-05-18T17:32:45.912Z,1.60
2023-05-18T17:35:14.786Z,6.10
2023-05-18T17:37:43.574Z,11.80
2023-05-18T17:40:13.708Z,26.90
2023-05-18T17:42:42.497Z,9.40
2023-05-18T17:45:11.791Z,4.60
2023-05-18T17:47:42.053Z,9.70
2023-05-18T17:50:13.663Z,4.10
2023-05-18T17:52:42.650Z,3.90
2023-05-18T17:55:11.543Z,21.30
2023-05-18T17:57:45.467Z,61.60
2023-05-18T18:00:16.032Z,72.00
2023-05-18T18:02:45.150Z,25.00
2023-05-18T18:05:14.282Z,9.20
2023-05-18T18:07:43.481Z,21.50
2023-05-18T18:10:12.947Z,7.40
2023-05-18T18:12:42.040Z,4.40
2023-05-18T18:15:11.800Z,4.40
2023-05-18T18:17:40.630Z,4.50
2023-05-18T18:20:10.481Z,6.40
2023-05-18T18:22:39.397Z,5.90
2023-05-18T18:25:09.000Z,5.50
2023-05-18T18:27:37.783Z,5.10
2023-05-18T18:30:07.955Z,3.70
2023-05-18T18:32:36.682Z,17.10
2023-05-18T18:35:07.394Z,224.00
2023-05-18T18:37:36.550Z,109.30
2023-05-18T18:40:11.982Z,48.40
2023-05-18T18:42:41.345Z,29.00
2023-05-18T18:45:11.197Z,15.70
2023-05-18T18:47:39.921Z,14.10
2023-05-18T18:50:09.294Z,10.30
2023-05-18T18:52:37.968Z,9.90
2023-05-18T18:55:07.373Z,9.10
2023-05-18T18:57:36.374Z,9.00
2023-05-18T19:00:11.503Z,9.90
2023-05-18T19:02:43.693Z,10.20
2023-05-18T19:05:12.867Z,11.30
2023-05-18T19:07:41.969Z,10.30
2023-05-18T19:10:11.780Z,9.30
2023-05-18T19:12:40.670Z,9.60
2023-05-18T19:15:15.352Z,9.70
2023-05-18T19:17:52.282Z,11.30
2023-05-18T19:20:21.687Z,19.90
2023-05-18T19:22:50.586Z,13.50
2023-05-18T19:25:21.789Z,11.80
2023-05-18T19:27:53.154Z,11.90
2023-05-18T19:30:23.190Z,14.40
2023-05-18T19:32:53.487Z,11.30
2023-05-18T19:35:24.035Z,12.90
2023-05-18T19:37:53.037Z,12.40
2023-05-18T19:40:23.305Z,11.70
2023-05-18T19:42:52.254Z,12.00
2023-05-18T19:45:21.143Z,12.00
2023-05-18T19:47:49.974Z,10.70
2023-05-18T19:50:18.967Z,9.60
2023-05-18T19:52:47.715Z,9.80
2023-05-18T19:55:17.922Z,9.60
2023-05-18T19:57:46.831Z,8.50
2023-05-18T20:00:16.442Z,7.80
2023-05-18T20:02:45.172Z,27.80
2023-05-18T20:05:19.095Z,24.10
2023-05-18T20:07:47.941Z,9.60
2023-05-18T20:10:16.818Z,10.90
2023-05-18T20:12:45.717Z,10.00
2023-05-18T20:15:14.506Z,10.90
2023-05-18T20:17:43.316Z,9.20
2023-05-18T20:20:12.714Z,10.90
2023-05-18T20:22:41.380Z,12.20
2023-05-18T20:25:12.355Z,12.50
2023-05-18T20:27:41.430Z,12.10
2023-05-18T20:30:10.626Z,12.40
2023-05-18T20:32:39.243Z,11.70
2023-05-18T20:35:07.989Z,10.20
2023-05-18T20:37:36.779Z,8.50
2023-05-18T20:40:09.863Z,25.90
2023-05-18T20:42:41.528Z,27.20
2023-05-18T20:45:11.035Z,14.40
2023-05-18T20:47:42.092Z,10.40
2023-05-18T20:50:11.104Z,11.10
2023-05-18T20:52:39.956Z,12.30
2023-05-18T20:55:09.634Z,16.90
2023-05-18T20:57:40.410Z,17.70
2023-05-18T21:00:10.510Z,20.10
2023-05-18T21:02:48.794Z,22.00
2023-05-18T21:05:19.162Z,21.40
2023-05-18T21:07:49.183Z,23.20
2023-05-18T21:10:17.875Z,27.00
2023-05-18T21:12:46.960Z,24.50
2023-05-18T21:15:16.062Z,20.90
2023-05-18T21:17:44.912Z,30.50
2023-05-18T21:20:13.740Z,24.30
2023-05-18T21:22:42.678Z,21.80
2023-05-18T21:25:11.533Z,26.20
2023-05-18T21:27:40.429Z,16.70
2023-05-18T21:30:10.639Z,8.60
2023-05-18T21:32:40.904Z,4.80
2023-05-18T21:35:09.982Z,2.20
2023-05-18T21:37:39.064Z,1.70
2023-05-18T21:40:08.894Z,1.70
2023-05-18T21:42:45.296Z,0.90
2023-05-18T21:45:14.234Z,1.50
2023-05-18T21:47:42.839Z,1.40
2023-05-18T21:50:12.025Z,1.00
2023-05-18T21:52:40.814Z,1.00
2023-05-18T21:55:10.316Z,0.90
2023-05-18T21:57:39.116Z,1.30
2023-05-18T22:00:10.943Z,1.10
2023-05-18T22:02:42.940Z,0.80
2023-05-18T22:05:11.729Z,1.00
2023-05-18T22:07:40.713Z,1.10
2023-05-18T22:10:09.969Z,1.20
2023-05-18T22:12:40.745Z,1.20
2023-05-18T22:15:13.484Z,1.10
2023-05-18T22:17:42.544Z,1.20
2023-05-18T22:20:11.966Z,1.50
2023-05-18T22:22:41.552Z,1.30
2023-05-18T22:25:10.846Z,1.30
2023-05-18T22:27:39.727Z,1.90
2023-05-18T22:30:09.734Z,1.80
2023-05-18T22:32:38.736Z,2.00
2023-05-18T22:35:09.234Z,2.00
2023-05-18T22:37:37.950Z,2.00
2023-05-18T22:40:08.154Z,1.90
2023-05-18T22:42:36.768Z,1.70
2023-05-18T22:45:06.343Z,2.20
2023-05-18T22:47:35.601Z,1.90
2023-05-18T22:50:05.537Z,2.00
2023-05-18T22:52:35.284Z,2.10
2023-05-18T22:55:05.800Z,2.30
2023-05-18T22:57:34.405Z,2.30
2023-05-18T23:00:03.297Z,2.60
2023-05-18T23:02:31.945Z,2.80
2023-05-18T23:05:01.638Z,3.50
2023-05-18T23:07:30.794Z,3.50
2023-05-18T23:09:59.380Z,3.80
2023-05-18T23:12:30.729Z,3.00
2023-05-18T23:15:02.893Z,3.10
2023-05-18T23:17:33.070Z,3.30
2023-05-18T23:20:08.707Z,2.60
2023-05-18T23:22:37.472Z,3.00
2023-05-18T23:25:09.069Z,2.00
2023-05-18T23:27:37.814Z,2.40
2023-05-18T23:30:07.819Z,2.30
2023-05-18T23:32:37.855Z,2.50
2023-05-18T23:35:08.231Z,2.10
2023-05-18T23:37:42.282Z,2.80
2023-05-18T23:40:12.822Z,3.60
2023-05-18T23:42:42.194Z,3.80
2023-05-18T23:45:11.893Z,3.80
2023-05-18T23:47:41.255Z,4.00
2023-05-18T23:50:10.936Z,4.60
2023-05-18T23:52:41.467Z,4.10
2023-05-18T23:55:12.693Z,4.60
2023-05-18T23:57:41.818Z,2.60
